Amador Station, California
Current Conditions -  °F | °C
As of 8:55 PM on Friday 31 Oct 2014 (Local Time) from KPVF Reporting Station
Overcast Overcast  
Wind Chill: 44°   Ceiling: 4000
Heat Index: 46°   Visibility: 7mi
Dew Point: 46°   Wind: 5mph
Humidity: 100%   Direction: 160°SSE
Pressure: 29.76"   Gusts: NA
Location:  38.5644°N, 120.32°W
Report Text: KPVF 010355Z AUTO 16004KT 7SM OVC040 08/08 A2976 RMK AO1 P0004
Loading
Personal Weather Stations






























Interactive Weather Map
Tropical Storm Tracking
New forecast layout! Learn more

10-Day Weather Forecast

Advertisements
Track Severe Weather on mobile